METAR AND TAF INFORMATION
METAR FOR EPKT
ADDS - METARS form results

(0438 UTC 26 February 2020)
Data provider http://aviationweather.gov/metar/data/
 
METAR text: EPKT 260430Z 17003KT 9999 BKN048 05/04 Q0993
Conditions at: EPKT (KATOWICE/PYRZOWI, PL) observed 0430 UTC 26 February 2020
Temperature: 5.0°C (41°F)
Dewpoint: 4.0°C (39°F) [RH = 93%]
Pressure (altimeter): 29.32 inches Hg (993.0 mb)
Winds: from the S (170 degrees) at 3 MPH (3 knots; 1.5 m/s)
Visibility: 6 or more miles (10+ km)
Ceiling: 4800 feet AGL
Clouds: broken clouds at 4800 feet AGL
Weather: no significant weather observed at this time

METAR text: EPKT 260400Z VRB02KT 9999 FEW024 04/04 Q0994
Conditions at: EPKT (KATOWICE/PYRZOWI, PL) observed 0400 UTC 26 February 2020
Temperature: 4.0°C (39°F)
Dewpoint: 4.0°C (39°F) [RH = 100%]
Pressure (altimeter): 29.35 inches Hg (994.0 mb)
Winds: variable direction winds at 2 MPH (2 knots; 1.0 m/s)
Visibility: 6 or more miles (10+ km)
Ceiling: at least 12,000 feet AGL
Clouds: few clouds at 2400 feet AGL
Weather: no significant weather observed at this time

Forecast for: EPKT (KATOWICE/PYRZOWI, PL)
Text: TAF EPKT 252330Z 2600/2624 23010KT 8000 SCT040
Forecast period: 0000 UTC 26 February 2020 to 0000 UTC 27 February 2020
Forecast type: FROM: standard forecast or significant change
Winds: from the SW (230 degrees) at 12 MPH (10 knots; 5.1 m/s)
Visibility: 5 miles (8 km)
Ceiling: at least 12,000 feet AGL
Clouds: scattered clouds at 4000 feet AGL
Weather: no significant weather forecast for this period
Text: TEMPO 2600/2606 4500 -RA BKN013
Forecast period: 0000 to 0600 UTC 26 February 2020
Forecast type: TEMPORARY: The following changes expected for less than half the time period
Visibility: 2.80 miles (4.51 km)
Ceiling: 1300 feet AGL
Clouds: broken clouds at 1300 feet AGL
Weather: -RA  (light rain)
Text: TEMPO 2621/2624 2000 SNRA BKN020CB
Forecast period: 2100 UTC 26 February 2020 to 0000 UTC 27 February 2020
Forecast type: TEMPORARY: The following changes expected for less than half the time period
Visibility: 1.24 miles (2.00 km)
Ceiling: 2000 feet AGL
Clouds: broken clouds at 2000 feet AGL
Weather: SN RA  (moderate snow, moderate rain)

 AIRPORT MAP

 RUNWAY INFORMATION
Runway 09 Runway length 9183 ft Runway width 195 ft
Runway elevation 970 ft Runway displaced threshold 0 ft Runway heading 90
Runway 27 Runway length 9183 ft Runway width 195 ft
Runway elevation 994 ft Runway displaced threshold 0 ft Runway heading 270

 AIRPORT FREQUENCIES
Type APP Name APP Frequency 121.075 MHZ
Type GCCD Name HANDLING Frequency 131.45 MHZ
Type TWR Name TWR Frequency 129.25 MHZ

 AIRPORT NEAR NAVIGATION AIDS
Type NDB Name Katowice Frequency 285 KHZ



Powered by Virtual Airlines Manager [v2.6.2]